Time;durP1;ratioP1;P1;durP2;ratioP2;P2;SDS_P1;SDS_P2;PMS_P1;PMS_P2;Temp;Humidity;BMP_temperature;BMP_pressure;BME280_temperature;BME280_humidity;BME280_pressure;Samples;Min_cycle;Max_cycle;Signal;HPM_P1;HPM_P2
2023/04/24 00:01:19;;;;;;;6.80;4.63;;;;;;;;;;5114918;28;20926;-70
2023/04/24 00:03:46;;;;;;;7.73;4.37;;;;;;;;;;5114944;28;20453;-70
2023/04/24 00:06:13;;;;;;;4.23;3.47;;;;;;;;;;5114922;28;20796;-69
2023/04/24 00:08:40;;;;;;;4.43;3.23;;;;;;;;;;5114788;28;20998;-70
2023/04/24 00:11:10;;;;;;;6.10;4.00;;;;;;;;;;5114872;28;20452;-70
2023/04/24 00:13:37;;;;;;;5.07;3.20;;;;;;;;;;5114650;28;20466;-70
2023/04/24 00:16:05;;;;;;;4.63;3.07;;;;;;;;;;5114722;28;20445;-70
2023/04/24 00:18:32;;;;;;;3.17;2.87;;;;;;;;;;5114571;28;20449;-70
2023/04/24 00:20:59;;;;;;;7.17;3.90;;;;;;;;;;5114254;28;20454;-70
2023/04/24 00:23:26;;;;;;;4.60;2.83;;;;;;;;;;5114619;28;20478;-70
2023/04/24 00:25:54;;;;;;;3.03;2.73;;;;;;;;;;5114495;28;20489;-70
2023/04/24 00:28:22;;;;;;;3.40;3.10;;;;;;;;;;5114249;28;20850;-70
2023/04/24 00:30:49;;;;;;;4.90;4.20;;;;;;;;;;5114420;28;20450;-70
2023/04/24 00:33:16;;;;;;;3.43;2.70;;;;;;;;;;5114170;28;20522;-70
2023/04/24 00:35:43;;;;;;;6.20;2.53;;;;;;;;;;5114279;28;20450;-70
2023/04/24 00:38:10;;;;;;;3.13;2.63;;;;;;;;;;5114284;28;20442;-70
2023/04/24 00:40:38;;;;;;;6.00;3.00;;;;;;;;;;5114215;28;20446;-70
2023/04/24 00:43:05;;;;;;;7.00;2.43;;;;;;;;;;5113624;28;20465;-70
2023/04/24 00:45:33;;;;;;;3.30;3.00;;;;;;;;;;5113846;28;20453;-70
2023/04/24 00:48:02;;;;;;;3.63;3.03;;;;;;;;;;5114000;28;20484;-70
2023/04/24 00:50:30;;;;;;;3.27;2.40;;;;;;;;;;5113982;28;20950;-70
2023/04/24 00:52:57;;;;;;;4.43;3.60;;;;;;;;;;5114067;28;20461;-70
2023/04/24 00:55:25;;;;;;;2.80;2.60;;;;;;;;;;5113819;28;20545;-70
2023/04/24 00:57:52;;;;;;;2.77;2.57;;;;;;;;;;5113704;28;20458;-70
2023/04/24 01:00:20;;;;;;;5.27;3.17;;;;;;;;;;5113813;28;20468;-70
2023/04/24 01:02:49;;;;;;;3.00;2.63;;;;;;;;;;5113935;28;20985;-70
2023/04/24 01:05:17;;;;;;;4.77;3.70;;;;;;;;;;5113774;28;20500;-70
2023/04/24 01:07:47;;;;;;;5.30;3.07;;;;;;;;;;5113759;28;20496;-70
2023/04/24 01:10:15;;;;;;;4.07;3.67;;;;;;;;;;5113676;28;20955;-70
2023/04/24 01:12:42;;;;;;;5.00;3.43;;;;;;;;;;5113523;28;20474;-70
2023/04/24 01:15:10;;;;;;;4.73;4.20;;;;;;;;;;5113704;28;20819;-70
2023/04/24 01:17:38;;;;;;;5.17;3.70;;;;;;;;;;5113721;28;20450;-70
2023/04/24 01:20:07;;;;;;;6.10;3.37;;;;;;;;;;5113582;28;20460;-70
2023/04/24 01:22:37;;;;;;;4.80;3.33;;;;;;;;;;5113104;28;20554;-70
2023/04/24 01:25:04;;;;;;;4.40;3.00;;;;;;;;;;5113104;28;20450;-70
2023/04/24 01:27:32;;;;;;;3.83;2.63;;;;;;;;;;5113592;28;20823;-70
2023/04/24 01:29:59;;;;;;;5.57;3.03;;;;;;;;;;5113414;28;20488;-70
2023/04/24 01:32:26;;;;;;;3.20;2.80;;;;;;;;;;5113521;28;20472;-70
2023/04/24 01:34:53;;;;;;;2.67;2.30;;;;;;;;;;5113201;28;20457;-70
2023/04/24 01:37:21;;;;;;;3.30;2.93;;;;;;;;;;5113260;28;20456;-70
2023/04/24 01:39:49;;;;;;;4.83;3.00;;;;;;;;;;5113634;28;20446;-70
2023/04/24 01:42:16;;;;;;;5.67;3.10;;;;;;;;;;5113134;28;20470;-70
2023/04/24 01:44:43;;;;;;;3.50;2.27;;;;;;;;;;5113169;28;20449;-70
2023/04/24 01:47:10;;;;;;;3.20;2.53;;;;;;;;;;5113247;28;20458;-70
2023/04/24 01:49:39;;;;;;;3.30;2.10;;;;;;;;;;5113274;28;20488;-70
2023/04/24 01:52:06;;;;;;;4.73;2.50;;;;;;;;;;5113180;28;20465;-70
2023/04/24 01:54:33;;;;;;;4.63;3.00;;;;;;;;;;5114908;28;20809;-70
2023/04/24 01:57:02;;;;;;;2.67;1.90;;;;;;;;;;5117676;28;20449;-70
2023/04/24 01:59:30;;;;;;;2.93;2.27;;;;;;;;;;5117624;28;20441;-70
2023/04/24 02:01:57;;;;;;;2.77;2.30;;;;;;;;;;5117344;28;20461;-70
2023/04/24 02:04:24;;;;;;;6.70;2.63;;;;;;;;;;5116955;28;20519;-70
2023/04/24 02:06:51;;;;;;;3.13;2.40;;;;;;;;;;5117292;28;20445;-70
2023/04/24 02:09:18;;;;;;;2.37;1.97;;;;;;;;;;5117142;28;20484;-70
2023/04/24 02:11:45;;;;;;;4.07;2.40;;;;;;;;;;5117162;28;20993;-70
2023/04/24 02:14:14;;;;;;;3.97;2.20;;;;;;;;;;5116833;28;20454;-70
2023/04/24 02:16:41;;;;;;;2.77;2.23;;;;;;;;;;5116940;28;20449;-69
2023/04/24 02:19:08;;;;;;;4.90;2.10;;;;;;;;;;5116852;28;20442;-70
2023/04/24 02:21:35;;;;;;;2.20;1.90;;;;;;;;;;5116473;28;20449;-70
2023/04/24 02:24:02;;;;;;;3.90;2.33;;;;;;;;;;5116406;28;20449;-69
2023/04/24 02:26:31;;;;;;;3.43;2.20;;;;;;;;;;5116859;28;20796;-69
2023/04/24 02:28:58;;;;;;;3.83;2.70;;;;;;;;;;5116817;28;20485;-69
2023/04/24 02:31:27;;;;;;;3.53;2.80;;;;;;;;;;5116561;28;20452;-70
2023/04/24 02:33:54;;;;;;;4.27;2.50;;;;;;;;;;5116685;28;20518;-70
2023/04/24 02:36:21;;;;;;;2.93;2.00;;;;;;;;;;5116709;28;20445;-70
2023/04/24 02:38:48;;;;;;;2.70;2.03;;;;;;;;;;5116792;28;20926;-70
2023/04/24 02:41:15;;;;;;;5.40;2.53;;;;;;;;;;5116653;28;20448;-70
2023/04/24 02:43:42;;;;;;;3.93;2.70;;;;;;;;;;5116302;28;20449;-70
2023/04/24 02:46:09;;;;;;;4.13;2.70;;;;;;;;;;5116572;28;20446;-70
2023/04/24 02:48:38;;;;;;;5.87;3.87;;;;;;;;;;5116395;28;20488;-70
2023/04/24 02:51:06;;;;;;;5.83;4.10;;;;;;;;;;5116525;28;20460;-70
2023/04/24 02:53:33;;;;;;;4.50;3.83;;;;;;;;;;5116006;28;20485;-70
2023/04/24 02:56:00;;;;;;;4.33;2.30;;;;;;;;;;5116264;28;20445;-70
2023/04/24 02:58:27;;;;;;;3.40;2.67;;;;;;;;;;5116101;28;20453;-70
2023/04/24 03:00:55;;;;;;;3.23;2.20;;;;;;;;;;5116205;28;20454;-70
2023/04/24 03:03:23;;;;;;;2.47;2.27;;;;;;;;;;5115970;28;20505;-70
2023/04/24 03:05:52;;;;;;;3.33;2.20;;;;;;;;;;5115896;28;20516;-69
2023/04/24 03:08:19;;;;;;;4.47;1.80;;;;;;;;;;5115932;28;20450;-70
2023/04/24 03:10:46;;;;;;;2.93;1.70;;;;;;;;;;5116237;28;20442;-69
2023/04/24 03:13:13;;;;;;;3.67;2.90;;;;;;;;;;5115970;28;20989;-69
2023/04/24 03:15:40;;;;;;;6.17;5.57;;;;;;;;;;5115664;28;20450;-69
2023/04/24 03:18:07;;;;;;;4.40;3.13;;;;;;;;;;5116018;28;20453;-69
2023/04/24 03:20:36;;;;;;;4.33;3.00;;;;;;;;;;5115878;28;20446;-69
2023/04/24 03:23:05;;;;;;;3.53;2.20;;;;;;;;;;5115275;28;20474;-70
2023/04/24 03:25:32;;;;;;;4.20;2.47;;;;;;;;;;5115422;28;20456;-69
2023/04/24 03:27:59;;;;;;;8.83;3.47;;;;;;;;;;5115719;28;20795;-69
2023/04/24 03:30:26;;;;;;;4.73;3.43;;;;;;;;;;5115689;28;20489;-69
2023/04/24 03:32:53;;;;;;;3.77;2.90;;;;;;;;;;5115602;28;20831;-69
2023/04/24 03:35:21;;;;;;;5.43;2.40;;;;;;;;;;5115203;28;20456;-70
2023/04/24 03:37:48;;;;;;;7.30;2.97;;;;;;;;;;5115662;28;20930;-69
2023/04/24 03:40:17;;;;;;;4.40;3.50;;;;;;;;;;5115413;28;20446;-70
2023/04/24 03:42:44;;;;;;;3.77;1.83;;;;;;;;;;5115374;28;20470;-69
2023/04/24 03:45:11;;;;;;;3.10;2.37;;;;;;;;;;5115188;28;20453;-70
2023/04/24 03:47:39;;;;;;;3.40;2.47;;;;;;;;;;5115420;28;20488;-69
2023/04/24 03:50:06;;;;;;;4.50;3.37;;;;;;;;;;5115290;28;21002;-69
2023/04/24 03:52:33;;;;;;;4.10;2.10;;;;;;;;;;5114977;28;20484;-69
2023/04/24 03:55:00;;;;;;;4.77;1.97;;;;;;;;;;5114966;28;20469;-70
2023/04/24 03:57:29;;;;;;;5.00;2.60;;;;;;;;;;5115027;28;20465;-69
2023/04/24 03:59:56;;;;;;;4.07;2.30;;;;;;;;;;5115133;28;20441;-70
2023/04/24 04:02:23;;;;;;;5.23;2.50;;;;;;;;;;5114800;28;20476;-69
2023/04/24 04:04:50;;;;;;;5.10;2.53;;;;;;;;;;5114809;28;20450;-69
2023/04/24 04:07:17;;;;;;;3.30;2.43;;;;;;;;;;5114832;28;20442;-70
2023/04/24 04:09:45;;;;;;;3.97;2.00;;;;;;;;;;5114987;28;20485;-69
2023/04/24 04:12:12;;;;;;;3.60;2.67;;;;;;;;;;5114743;28;20477;-70
2023/04/24 04:14:41;;;;;;;5.13;2.63;;;;;;;;;;5114694;28;20485;-70
2023/04/24 04:17:08;;;;;;;3.53;2.70;;;;;;;;;;5113893;28;20449;-70
2023/04/24 04:19:35;;;;;;;4.10;2.20;;;;;;;;;;5114672;28;20938;-69
2023/04/24 04:22:02;;;;;;;4.60;3.20;;;;;;;;;;5114035;28;20580;-70
2023/04/24 04:24:29;;;;;;;3.97;2.50;;;;;;;;;;5114102;28;20457;-69
2023/04/24 04:26:58;;;;;;;2.17;1.90;;;;;;;;;;5114693;28;20449;-69
2023/04/24 04:29:25;;;;;;;9.33;5.03;;;;;;;;;;5114314;28;20481;-69
2023/04/24 04:31:54;;;;;;;6.20;3.37;;;;;;;;;;5114385;28;20477;-70
2023/04/24 04:34:22;;;;;;;4.40;2.80;;;;;;;;;;5114163;28;20824;-70
2023/04/24 04:36:50;;;;;;;7.50;3.80;;;;;;;;;;5114327;28;20500;-70
2023/04/24 04:39:18;;;;;;;7.73;4.50;;;;;;;;;;5114406;28;20433;-70
2023/04/24 04:41:48;;;;;;;4.23;3.20;;;;;;;;;;5114136;28;20530;-70
2023/04/24 04:44:15;;;;;;;3.50;2.50;;;;;;;;;;5113533;28;20473;-70
2023/04/24 04:46:43;;;;;;;3.53;2.30;;;;;;;;;;5114061;28;20449;-70
2023/04/24 04:49:13;;;;;;;3.07;2.53;;;;;;;;;;5113946;28;20482;-70
2023/04/24 04:51:40;;;;;;;3.80;2.70;;;;;;;;;;5113112;28;20473;-70
2023/04/24 04:54:07;;;;;;;3.70;2.90;;;;;;;;;;5113977;28;20450;-71
2023/04/24 04:56:34;;;;;;;4.53;3.03;;;;;;;;;;5113890;28;20450;-70
2023/04/24 04:59:01;;;;;;;5.00;2.90;;;;;;;;;;5113949;28;20454;-70
2023/04/24 05:01:28;;;;;;;2.70;2.30;;;;;;;;;;5113641;28;20454;-70
2023/04/24 05:03:56;;;;;;;4.37;3.00;;;;;;;;;;5113771;28;20454;-70
2023/04/24 05:06:25;;;;;;;4.70;2.87;;;;;;;;;;5113911;28;20445;-69
2023/04/24 05:08:55;;;;;;;2.80;2.17;;;;;;;;;;5113786;28;20453;-70
2023/04/24 05:11:22;;;;;;;3.20;2.90;;;;;;;;;;5113732;28;20488;-70
2023/04/24 05:13:50;;;;;;;3.40;1.93;;;;;;;;;;5113590;28;20825;-70
2023/04/24 05:16:17;;;;;;;3.07;1.80;;;;;;;;;;5113644;28;20483;-70
2023/04/24 05:18:44;;;;;;;3.30;1.80;;;;;;;;;;5113831;28;20794;-70
2023/04/24 05:21:11;;;;;;;2.30;1.63;;;;;;;;;;5113150;28;20823;-70
2023/04/24 05:23:40;;;;;;;3.03;2.57;;;;;;;;;;5113137;28;20473;-70
2023/04/24 05:26:07;;;;;;;3.07;2.10;;;;;;;;;;5113676;28;20450;-69
2023/04/24 05:28:36;;;;;;;2.40;1.67;;;;;;;;;;5113275;28;20841;-70
2023/04/24 05:31:03;;;;;;;2.67;2.17;;;;;;;;;;5113464;28;21006;-70
2023/04/24 05:33:30;;;;;;;4.33;2.10;;;;;;;;;;5113156;28;20473;-70
2023/04/24 05:35:57;;;;;;;4.23;1.83;;;;;;;;;;5113526;28;20454;-70
2023/04/24 05:38:24;;;;;;;3.23;1.70;;;;;;;;;;5113474;28;20457;-70
2023/04/24 05:40:53;;;;;;;2.97;1.90;;;;;;;;;;5113265;28;20457;-70
2023/04/24 05:43:20;;;;;;;2.20;1.53;;;;;;;;;;5113156;28;20479;-70
2023/04/24 05:45:47;;;;;;;2.37;1.87;;;;;;;;;;5113277;28;20557;-70
2023/04/24 05:48:14;;;;;;;2.63;1.60;;;;;;;;;;5113223;28;20449;-70
2023/04/24 05:50:41;;;;;;;2.50;1.60;;;;;;;;;;5113236;28;20489;-69
2023/04/24 05:53:10;;;;;;;2.30;1.60;;;;;;;;;;5113286;28;20832;-70
2023/04/24 05:55:37;;;;;;;1.97;1.50;;;;;;;;;;5113145;28;20461;-69
2023/04/24 05:58:06;;;;;;;6.00;1.60;;;;;;;;;;5113192;28;20466;-70
2023/04/24 06:00:33;;;;;;;5.90;4.00;;;;;;;;;;5113063;28;20441;-70
2023/04/24 06:03:03;;;;;;;1.83;1.50;;;;;;;;;;5112955;28;20470;-69
2023/04/24 06:05:30;;;;;;;1.80;1.40;;;;;;;;;;5112988;28;20449;-69
2023/04/24 06:07:57;;;;;;;1.40;1.10;;;;;;;;;;5113235;28;20511;-70
2023/04/24 06:10:25;;;;;;;1.83;1.30;;;;;;;;;;5112991;28;20492;-70
2023/04/24 06:12:56;;;;;;;1.97;1.20;;;;;;;;;;5112841;28;20530;-70
2023/04/24 06:15:24;;;;;;;3.33;1.33;;;;;;;;;;5112902;28;20522;-70
2023/04/24 06:17:51;;;;;;;2.13;1.50;;;;;;;;;;5113100;28;20890;-70
2023/04/24 06:20:18;;;;;;;1.90;1.40;;;;;;;;;;5112991;28;20445;-69
2023/04/24 06:22:45;;;;;;;2.27;1.33;;;;;;;;;;5112417;28;20997;-69
2023/04/24 06:25:13;;;;;;;4.23;1.87;;;;;;;;;;5112497;28;20453;-70
2023/04/24 06:27:40;;;;;;;4.03;2.10;;;;;;;;;;5113028;28;20930;-70
2023/04/24 06:30:08;;;;;;;6.60;1.43;;;;;;;;;;5112951;28;20482;-70
2023/04/24 06:32:36;;;;;;;1.83;1.60;;;;;;;;;;5112735;28;20465;-70
2023/04/24 06:35:03;;;;;;;2.60;1.60;;;;;;;;;;5112675;28;20457;-70
2023/04/24 06:37:32;;;;;;;1.90;1.40;;;;;;;;;;5112728;28;20453;-70
2023/04/24 06:39:59;;;;;;;3.13;1.57;;;;;;;;;;5113451;28;20445;-70
2023/04/24 06:42:26;;;;;;;3.37;1.47;;;;;;;;;;5116552;28;20491;-70
2023/04/24 06:44:53;;;;;;;3.43;1.87;;;;;;;;;;5116386;28;20451;-69
2023/04/24 06:47:20;;;;;;;1.93;1.30;;;;;;;;;;5116384;28;20456;-70
2023/04/24 06:49:50;;;;;;;3.17;1.40;;;;;;;;;;5116418;28;20484;-70
2023/04/24 06:52:17;;;;;;;3.03;1.30;;;;;;;;;;5116244;28;20473;-70
2023/04/24 06:54:45;;;;;;;1.90;1.30;;;;;;;;;;5116260;28;20453;-70
2023/04/24 06:57:12;;;;;;;2.60;1.40;;;;;;;;;;5116136;28;20516;-69
2023/04/24 06:59:39;;;;;;;1.80;1.40;;;;;;;;;;5116368;28;20449;-70
2023/04/24 07:02:06;;;;;;;1.53;1.07;;;;;;;;;;5116145;28;20476;-70
2023/04/24 07:04:33;;;;;;;3.10;2.10;;;;;;;;;;5115792;28;20457;-70
2023/04/24 07:07:02;;;;;;;2.03;1.60;;;;;;;;;;5116107;28;20518;-70
2023/04/24 07:09:29;;;;;;;3.20;1.40;;;;;;;;;;5115930;28;20468;-70
2023/04/24 07:11:57;;;;;;;2.10;1.90;;;;;;;;;;5115902;28;20469;-70
2023/04/24 07:14:24;;;;;;;2.00;1.80;;;;;;;;;;5115729;28;20454;-70
2023/04/24 07:16:51;;;;;;;1.80;1.60;;;;;;;;;;5115818;28;20502;-70
2023/04/24 07:19:18;;;;;;;2.20;1.70;;;;;;;;;;5115807;28;20449;-70
2023/04/24 07:21:45;;;;;;;4.03;2.47;;;;;;;;;;5115490;28;20477;-70
2023/04/24 07:24:14;;;;;;;6.67;4.87;;;;;;;;;;5115258;28;20468;-70
2023/04/24 07:26:41;;;;;;;3.73;2.43;;;;;;;;;;5115651;28;20453;-70
2023/04/24 07:29:08;;;;;;;4.10;2.77;;;;;;;;;;5115618;28;20457;-70
2023/04/24 07:31:35;;;;;;;4.00;2.40;;;;;;;;;;5115532;28;20485;-70
2023/04/24 07:34:02;;;;;;;3.17;2.10;;;;;;;;;;5115358;28;20891;-70
2023/04/24 07:36:29;;;;;;;2.17;1.43;;;;;;;;;;5115555;28;20450;-70
2023/04/24 07:38:57;;;;;;;2.47;1.70;;;;;;;;;;5115597;28;20480;-70
2023/04/24 07:41:27;;;;;;;1.97;1.70;;;;;;;;;;5115270;28;20453;-70
2023/04/24 07:43:54;;;;;;;1.60;1.23;;;;;;;;;;5115158;28;20484;-70
2023/04/24 07:46:23;;;;;;;2.93;1.43;;;;;;;;;;5115365;28;20466;-70
2023/04/24 07:48:50;;;;;;;1.80;1.40;;;;;;;;;;5115431;28;20541;-70
2023/04/24 07:51:17;;;;;;;2.70;1.60;;;;;;;;;;5114255;28;20486;-70
2023/04/24 07:53:44;;;;;;;1.87;1.50;;;;;;;;;;5114804;28;20939;-70
2023/04/24 07:56:11;;;;;;;2.00;1.80;;;;;;;;;;5115104;28;20934;-70
2023/04/24 07:58:40;;;;;;;2.40;1.90;;;;;;;;;;5114843;28;20461;-70
2023/04/24 08:01:07;;;;;;;3.47;1.63;;;;;;;;;;5115138;28;20919;-70
2023/04/24 08:03:34;;;;;;;2.50;1.87;;;;;;;;;;5114768;28;20474;-70
2023/04/24 08:06:01;;;;;;;3.80;2.23;;;;;;;;;;5115009;28;20445;-70
2023/04/24 08:08:28;;;;;;;4.87;2.00;;;;;;;;;;5114950;28;20875;-70
2023/04/24 08:10:55;;;;;;;3.90;1.67;;;;;;;;;;5114807;28;20489;-70
2023/04/24 08:13:22;;;;;;;2.13;1.53;;;;;;;;;;5114532;28;20492;-70
2023/04/24 08:15:51;;;;;;;2.37;1.40;;;;;;;;;;5114689;28;20456;-70
2023/04/24 08:18:18;;;;;;;4.50;1.40;;;;;;;;;;5114640;28;20969;-70
2023/04/24 08:20:46;;;;;;;3.00;2.50;;;;;;;;;;5114840;28;20446;-70
2023/04/24 08:23:13;;;;;;;2.73;1.40;;;;;;;;;;5113699;28;20825;-70
2023/04/24 08:25:40;;;;;;;1.70;1.10;;;;;;;;;;5114339;28;20457;-70
2023/04/24 08:28:08;;;;;;;1.60;1.30;;;;;;;;;;5114661;28;20950;-70
2023/04/24 08:30:35;;;;;;;2.20;1.40;;;;;;;;;;5114294;28;20485;-71
2023/04/24 08:33:03;;;;;;;1.90;1.60;;;;;;;;;;5114407;28;20470;-70
2023/04/24 08:35:30;;;;;;;4.60;1.93;;;;;;;;;;5114255;28;20473;-70
2023/04/24 08:37:57;;;;;;;2.27;1.40;;;;;;;;;;5114374;28;20788;-70
2023/04/24 08:40:30;;;;;;;2.13;0.90;;;;;;;;;;5114371;28;21004;-70
2023/04/24 08:42:57;;;;;;;1.70;1.13;;;;;;;;;;5114404;28;20466;-70
2023/04/24 08:45:25;;;;;;;3.63;1.03;;;;;;;;;;5114155;28;20499;-70
2023/04/24 08:47:54;;;;;;;1.30;0.83;;;;;;;;;;5114557;28;20462;-70
2023/04/24 08:50:23;;;;;;;1.40;1.10;;;;;;;;;;5114010;28;20488;-72
2023/04/24 08:52:53;;;;;;;1.20;0.83;;;;;;;;;;5114128;28;20470;-70
2023/04/24 08:55:20;;;;;;;4.30;0.93;;;;;;;;;;5113832;28;20449;-70
2023/04/24 08:57:49;;;;;;;1.70;1.03;;;;;;;;;;5113999;28;20468;-70
2023/04/24 09:00:16;;;;;;;2.13;1.00;;;;;;;;;;5114020;28;20498;-70
2023/04/24 09:02:44;;;;;;;1.40;1.00;;;;;;;;;;5113739;28;20958;-70
2023/04/24 09:05:11;;;;;;;3.03;1.17;;;;;;;;;;5113766;28;20448;-70
2023/04/24 09:07:40;;;;;;;1.40;1.00;;;;;;;;;;5114063;28;20450;-70
2023/04/24 09:10:08;;;;;;;1.97;1.73;;;;;;;;;;5113792;28;20449;-70
2023/04/24 09:12:36;;;;;;;3.93;1.37;;;;;;;;;;5113700;28;20469;-72
2023/04/24 09:15:04;;;;;;;1.40;1.00;;;;;;;;;;5113885;28;20816;-72
2023/04/24 09:17:31;;;;;;;1.80;1.20;;;;;;;;;;5113811;28;20445;-72
2023/04/24 09:19:59;;;;;;;1.40;0.90;;;;;;;;;;5114002;28;20791;-73
2023/04/24 09:22:26;;;;;;;4.27;1.60;;;;;;;;;;5113498;28;20476;-72
2023/04/24 09:25:03;;;;;;;1.80;1.00;;;;;;;;;;5113522;28;20457;-73
2023/04/24 09:27:30;;;;;;;1.53;1.07;;;;;;;;;;5113884;28;20462;-73
2023/04/24 09:29:58;;;;;;;1.97;1.10;;;;;;;;;;5113931;28;20441;-73
2023/04/24 09:32:27;;;;;;;2.23;1.37;;;;;;;;;;5113347;28;20489;-73
2023/04/24 09:35:07;;;;;;;2.07;1.00;;;;;;;;;;5114023;28;20531;-73
2023/04/24 09:37:37;;;;;;;1.50;1.20;;;;;;;;;;5113564;28;20875;-73
2023/04/24 09:40:12;;;;;;;1.77;1.10;;;;;;;;;;5113790;28;20450;-71
2023/04/24 09:42:39;;;;;;;1.67;1.00;;;;;;;;;;5113569;28;20466;-73
2023/04/24 09:45:11;;;;;;;2.80;1.73;;;;;;;;;;5113458;28;20450;-72
2023/04/24 09:47:38;;;;;;;1.80;1.30;;;;;;;;;;5113631;28;20488;-73
2023/04/24 09:50:15;;;;;;;1.30;1.00;;;;;;;;;;5113874;28;20446;-73
2023/04/24 09:52:43;;;;;;;1.30;0.90;;;;;;;;;;5113758;28;20520;-71
2023/04/24 09:55:20;;;;;;;1.53;1.00;;;;;;;;;;5113196;28;20935;-71
2023/04/24 09:57:51;;;;;;;1.40;1.00;;;;;;;;;;5113417;28;20456;-71
2023/04/24 10:00:25;;;;;;;1.70;1.20;;;;;;;;;;5113327;28;20441;-71
2023/04/24 10:02:53;;;;;;;1.67;1.40;;;;;;;;;;5113941;28;20990;-71
2023/04/24 10:05:20;;;;;;;1.50;1.23;;;;;;;;;;5113325;28;20450;-71
2023/04/24 10:07:47;;;;;;;3.00;0.90;;;;;;;;;;5113662;28;20821;-72
2023/04/24 10:10:15;;;;;;;1.40;0.93;;;;;;;;;;5113599;28;20449;-73
2023/04/24 10:12:44;;;;;;;1.53;0.87;;;;;;;;;;5113258;28;20491;-73
2023/04/24 10:15:13;;;;;;;1.40;1.00;;;;;;;;;;5114324;28;20837;-73
2023/04/24 10:17:40;;;;;;;1.80;1.10;;;;;;;;;;5117454;28;20901;-73
2023/04/24 10:20:08;;;;;;;2.47;1.20;;;;;;;;;;5117560;28;20457;-73
2023/04/24 10:22:36;;;;;;;1.80;1.30;;;;;;;;;;5116516;28;20461;-73
2023/04/24 10:25:05;;;;;;;1.70;1.10;;;;;;;;;;5116844;28;20460;-72
2023/04/24 10:27:33;;;;;;;1.60;1.17;;;;;;;;;;5116830;28;20449;-71
2023/04/24 10:30:03;;;;;;;2.57;1.30;;;;;;;;;;5116981;28;20510;-70
2023/04/24 10:32:30;;;;;;;4.67;1.20;;;;;;;;;;5116559;28;20500;-70
2023/04/24 10:34:57;;;;;;;1.53;1.20;;;;;;;;;;5116584;28;20549;-70
2023/04/24 10:37:25;;;;;;;2.40;1.60;;;;;;;;;;5116788;28;20450;-70
2023/04/24 10:39:54;;;;;;;2.17;1.40;;;;;;;;;;5116803;28;20453;-70
2023/04/24 10:42:22;;;;;;;1.53;1.30;;;;;;;;;;5116499;28;20474;-70
2023/04/24 10:44:49;;;;;;;3.17;2.20;;;;;;;;;;5116402;28;20450;-70
2023/04/24 10:47:18;;;;;;;3.73;1.83;;;;;;;;;;5116413;28;21033;-70
2023/04/24 10:49:45;;;;;;;1.90;1.60;;;;;;;;;;5116572;28;20446;-70
2023/04/24 10:52:12;;;;;;;2.20;1.77;;;;;;;;;;5116513;28;20838;-70
2023/04/24 10:54:44;;;;;;;1.80;1.47;;;;;;;;;;5116197;28;20506;-70
2023/04/24 10:57:30;;;;;;;2.03;1.63;;;;;;;;;;5116210;28;20573;-70
2023/04/24 11:00:16;;;;;;;5.33;1.53;;;;;;;;;;5116114;28;20453;-70
2023/04/24 11:02:50;;;;;;;3.83;1.80;;;;;;;;;;5116273;28;20468;-70
2023/04/24 11:05:18;;;;;;;2.30;1.60;;;;;;;;;;5116050;28;20454;-70
2023/04/24 11:08:03;;;;;;;1.90;1.70;;;;;;;;;;5116132;28;20457;-70
2023/04/24 11:10:30;;;;;;;2.07;1.63;;;;;;;;;;5115969;28;20942;-70
2023/04/24 11:12:57;;;;;;;2.50;1.60;;;;;;;;;;5116119;28;20497;-70
2023/04/24 11:15:24;;;;;;;2.33;1.97;;;;;;;;;;5115943;28;20460;-72
2023/04/24 11:17:57;;;;;;;1.90;1.60;;;;;;;;;;5116258;28;20449;-72
2023/04/24 11:20:26;;;;;;;2.10;1.30;;;;;;;;;;5115976;28;20499;-73
2023/04/24 11:22:54;;;;;;;1.80;1.30;;;;;;;;;;5115410;28;20470;-73
2023/04/24 11:25:22;;;;;;;2.40;1.30;;;;;;;;;;5115793;28;20446;-73
2023/04/24 11:27:51;;;;;;;2.10;1.43;;;;;;;;;;5115676;28;20510;-73
2023/04/24 11:30:19;;;;;;;1.60;1.40;;;;;;;;;;5115886;28;20953;-73
2023/04/24 11:32:49;;;;;;;2.33;1.50;;;;;;;;;;5115886;28;20492;-73
2023/04/24 11:35:18;;;;;;;2.80;1.80;;;;;;;;;;5115509;28;20556;-74
2023/04/24 11:37:47;;;;;;;1.97;1.77;;;;;;;;;;5116215;28;20488;-73
2023/04/24 11:40:16;;;;;;;3.00;1.77;;;;;;;;;;5115751;28;20457;-73
2023/04/24 11:42:43;;;;;;;2.17;1.73;;;;;;;;;;5115703;28;20497;-73
2023/04/24 11:45:11;;;;;;;2.30;1.70;;;;;;;;;;5115598;28;20576;-73
2023/04/24 11:47:39;;;;;;;2.73;1.57;;;;;;;;;;5115652;28;20797;-73
2023/04/24 11:50:07;;;;;;;1.73;1.53;;;;;;;;;;5115506;28;20449;-73
2023/04/24 11:52:38;;;;;;;2.33;1.70;;;;;;;;;;5115185;28;20493;-73
2023/04/24 11:55:06;;;;;;;3.70;1.90;;;;;;;;;;5115426;28;20490;-73
2023/04/24 11:57:36;;;;;;;1.90;1.73;;;;;;;;;;5115156;28;20925;-73
2023/04/24 12:00:04;;;;;;;2.13;1.93;;;;;;;;;;5115503;28;20454;-73
2023/04/24 12:02:31;;;;;;;2.27;1.67;;;;;;;;;;5114957;28;20527;-73
2023/04/24 12:04:58;;;;;;;2.60;2.20;;;;;;;;;;5115029;28;20953;-73
2023/04/24 12:07:25;;;;;;;3.63;2.00;;;;;;;;;;5115208;28;20453;-73
2023/04/24 12:09:59;;;;;;;2.17;1.77;;;;;;;;;;5115155;28;20499;-73
2023/04/24 12:12:27;;;;;;;3.20;1.70;;;;;;;;;;5115132;28;20544;-73
2023/04/24 12:14:55;;;;;;;2.20;1.67;;;;;;;;;;5114759;28;20450;-73
2023/04/24 12:17:25;;;;;;;3.93;1.63;;;;;;;;;;5115086;28;20449;-73
2023/04/24 12:19:53;;;;;;;2.93;1.73;;;;;;;;;;5115324;28;20449;-73
2023/04/24 12:22:20;;;;;;;2.43;1.70;;;;;;;;;;5114029;28;20477;-73
2023/04/24 12:25:02;;;;;;;5.43;1.90;;;;;;;;;;5114901;28;20537;-73
2023/04/24 12:27:32;;;;;;;2.03;1.80;;;;;;;;;;5114784;28;20457;-73
2023/04/24 12:29:59;;;;;;;3.40;2.10;;;;;;;;;;5114989;28;20457;-73
2023/04/24 12:32:27;;;;;;;2.23;1.50;;;;;;;;;;5114541;28;20515;-73
2023/04/24 12:34:54;;;;;;;1.77;1.40;;;;;;;;;;5114563;28;20467;-71
2023/04/24 12:37:21;;;;;;;1.97;1.63;;;;;;;;;;5114120;28;20570;-71
2023/04/24 12:40:03;;;;;;;1.47;0.90;;;;;;;;;;5114579;28;20812;-71
2023/04/24 12:42:30;;;;;;;3.03;1.20;;;;;;;;;;5114390;28;20997;-71
2023/04/24 12:44:59;;;;;;;1.50;1.00;;;;;;;;;;5114422;28;20926;-71
2023/04/24 12:47:26;;;;;;;1.40;1.00;;;;;;;;;;5114197;28;20483;-71
2023/04/24 12:49:55;;;;;;;2.00;1.50;;;;;;;;;;5114660;28;20450;-71
2023/04/24 12:52:22;;;;;;;2.70;1.60;;;;;;;;;;5114069;28;20918;-71
2023/04/24 12:54:49;;;;;;;1.50;1.10;;;;;;;;;;5114333;28;20449;-71
2023/04/24 12:57:18;;;;;;;1.60;1.20;;;;;;;;;;5114214;28;20445;-71
2023/04/24 12:59:45;;;;;;;4.27;1.10;;;;;;;;;;5114240;28;20442;-71
2023/04/24 13:02:12;;;;;;;3.73;1.90;;;;;;;;;;5113983;28;20470;-71
2023/04/24 13:04:39;;;;;;;2.07;1.53;;;;;;;;;;5113684;28;20454;-71
2023/04/24 13:07:07;;;;;;;1.60;1.17;;;;;;;;;;5114154;28;20485;-71
2023/04/24 13:09:36;;;;;;;2.00;1.47;;;;;;;;;;5113990;28;20946;-71
2023/04/24 13:12:05;;;;;;;1.50;1.33;;;;;;;;;;5113858;28;20884;-71
2023/04/24 13:14:33;;;;;;;2.87;1.30;;;;;;;;;;5113693;28;20481;-71
2023/04/24 13:17:00;;;;;;;3.30;1.60;;;;;;;;;;5114171;28;20457;-71
2023/04/24 13:19:28;;;;;;;1.70;1.30;;;;;;;;;;5113900;28;20438;-71
2023/04/24 13:21:56;;;;;;;1.53;1.20;;;;;;;;;;5113786;28;20895;-74
2023/04/24 13:24:24;;;;;;;1.70;1.50;;;;;;;;;;5113487;28;20450;-71
2023/04/24 13:26:51;;;;;;;1.47;1.17;;;;;;;;;;5113955;28;20481;-71
2023/04/24 13:29:19;;;;;;;3.53;1.20;;;;;;;;;;5113630;28;20454;-72
2023/04/24 13:31:47;;;;;;;3.80;1.43;;;;;;;;;;5113681;28;20492;-71
2023/04/24 13:34:14;;;;;;;6.47;2.97;;;;;;;;;;5113557;28;20946;-71
2023/04/24 13:36:42;;;;;;;2.00;1.30;;;;;;;;;;5113626;28;20463;-71
2023/04/24 13:39:09;;;;;;;2.07;1.20;;;;;;;;;;5113769;28;20808;-71
2023/04/24 13:41:36;;;;;;;1.50;1.20;;;;;;;;;;5113736;28;20450;-71
2023/04/24 13:44:03;;;;;;;1.60;1.30;;;;;;;;;;5113323;28;20506;-71
2023/04/24 13:46:30;;;;;;;2.27;1.60;;;;;;;;;;5113484;28;20786;-72
2023/04/24 13:48:59;;;;;;;2.20;1.53;;;;;;;;;;5114394;28;20460;-73
2023/04/24 13:51:27;;;;;;;1.50;1.20;;;;;;;;;;5117647;28;20449;-75
2023/04/24 13:53:54;;;;;;;1.73;1.43;;;;;;;;;;5117509;28;20550;-74
2023/04/24 13:56:21;;;;;;;1.50;1.10;;;;;;;;;;5117663;28;20498;-74
2023/04/24 13:58:49;;;;;;;2.53;1.70;;;;;;;;;;5117554;28;20548;-71
2023/04/24 14:01:16;;;;;;;1.40;1.20;;;;;;;;;;5117446;28;20446;-72
2023/04/24 14:03:44;;;;;;;1.83;1.47;;;;;;;;;;5117479;28;20458;-72
2023/04/24 14:06:12;;;;;;;1.67;1.40;;;;;;;;;;5117538;28;20456;-72
2023/04/24 14:08:40;;;;;;;1.90;1.40;;;;;;;;;;5117459;28;20446;-72
2023/04/24 14:11:07;;;;;;;3.07;1.40;;;;;;;;;;5117617;28;20579;-72
2023/04/24 14:13:34;;;;;;;2.10;1.20;;;;;;;;;;5116908;28;20997;-72
2023/04/24 14:16:01;;;;;;;4.43;1.60;;;;;;;;;;5117282;28;20453;-72
2023/04/24 14:18:28;;;;;;;1.63;1.30;;;;;;;;;;5117385;28;20813;-72
2023/04/24 14:20:55;;;;;;;2.13;1.70;;;;;;;;;;5117284;28;21019;-71
2023/04/24 14:23:24;;;;;;;2.13;1.50;;;;;;;;;;5116580;28;20466;-74
2023/04/24 14:25:52;;;;;;;2.50;2.30;;;;;;;;;;5117163;28;20457;-72
2023/04/24 14:28:19;;;;;;;2.73;1.90;;;;;;;;;;5117107;28;20876;-72
2023/04/24 14:30:47;;;;;;;2.37;1.50;;;;;;;;;;5117169;28;20453;-71
2023/04/24 14:33:14;;;;;;;6.60;1.80;;;;;;;;;;5117107;28;21061;-71
2023/04/24 14:35:41;;;;;;;3.27;2.90;;;;;;;;;;5117063;28;20449;-71
2023/04/24 14:38:09;;;;;;;3.73;2.70;;;;;;;;;;5116950;28;20450;-71
2023/04/24 14:40:37;;;;;;;5.97;2.90;;;;;;;;;;5116889;28;20481;-70
2023/04/24 14:43:05;;;;;;;13.53;3.27;;;;;;;;;;5116595;28;20496;-71
2023/04/24 14:45:32;;;;;;;4.50;2.40;;;;;;;;;;5116323;28;20446;-70
2023/04/24 14:47:59;;;;;;;6.33;2.33;;;;;;;;;;5116593;28;20445;-70